Time;durP1;ratioP1;P1;durP2;ratioP2;P2;SDS_P1;SDS_P2;PMS_P1;PMS_P2;Temp;Humidity;BMP_temperature;BMP_pressure;BME280_temperature;BME280_humidity;BME280_pressure;Samples;Min_cycle;Max_cycle;Signal;HPM_P1;HPM_P2
2022/05/08 00:00:43;;;;;;;9.63;5.82;;;;;;;;;;4984969;28;20034;-67
2022/05/08 00:03:09;;;;;;;8.77;5.25;;;;;;;;;;4977263;28;20116;-67
2022/05/08 00:05:35;;;;;;;9.02;5.03;;;;;;;;;;4988743;28;20506;-66
2022/05/08 00:08:01;;;;;;;11.20;5.28;;;;;;;;;;4979135;28;20381;-66
2022/05/08 00:10:27;;;;;;;13.32;5.80;;;;;;;;;;4982325;28;20054;-66
2022/05/08 00:12:54;;;;;;;10.93;6.10;;;;;;;;;;4986231;28;20137;-66
2022/05/08 00:15:20;;;;;;;12.27;6.22;;;;;;;;;;4975850;28;20031;-66
2022/05/08 00:17:48;;;;;;;11.98;6.40;;;;;;;;;;4987994;28;20031;-66
2022/05/08 00:20:18;;;;;;;11.38;5.53;;;;;;;;;;4981092;28;20030;-66
2022/05/08 00:22:44;;;;;;;9.38;5.55;;;;;;;;;;4980239;28;20039;-66
2022/05/08 00:25:10;;;;;;;8.52;5.10;;;;;;;;;;4988152;28;20019;-67
2022/05/08 00:27:36;;;;;;;10.00;4.95;;;;;;;;;;4975897;28;20069;-67
2022/05/08 00:30:03;;;;;;;12.30;5.47;;;;;;;;;;4986002;28;20053;-66
2022/05/08 00:32:30;;;;;;;10.57;4.93;;;;;;;;;;4982188;28;20112;-66
2022/05/08 00:34:56;;;;;;;8.20;4.90;;;;;;;;;;4978976;28;20035;-66
2022/05/08 00:37:22;;;;;;;7.25;4.88;;;;;;;;;;4987893;28;20109;-67
2022/05/08 00:39:48;;;;;;;6.30;4.30;;;;;;;;;;4976542;28;20053;-67
2022/05/08 00:42:18;;;;;;;8.10;4.75;;;;;;;;;;4983818;28;20034;-66
2022/05/08 00:44:44;;;;;;;8.82;4.90;;;;;;;;;;4983591;28;20027;-66
2022/05/08 00:47:10;;;;;;;7.18;4.50;;;;;;;;;;4977074;28;20023;-66
2022/05/08 00:49:36;;;;;;;6.90;3.97;;;;;;;;;;4987980;28;20492;-66
2022/05/08 00:52:04;;;;;;;7.45;4.32;;;;;;;;;;4971232;28;20389;-66
2022/05/08 00:54:30;;;;;;;7.82;4.25;;;;;;;;;;4972518;28;20054;-66
2022/05/08 00:56:58;;;;;;;6.63;4.10;;;;;;;;;;4985349;28;20027;-66
2022/05/08 00:59:27;;;;;;;7.80;3.97;;;;;;;;;;4975123;28;20185;-66
2022/05/08 01:01:53;;;;;;;7.85;4.50;;;;;;;;;;4987395;28;20019;-66
2022/05/08 01:04:19;;;;;;;7.35;4.53;;;;;;;;;;4979883;28;20053;-67
2022/05/08 01:06:45;;;;;;;6.93;4.80;;;;;;;;;;4979816;28;20023;-66
2022/05/08 01:09:12;;;;;;;7.07;4.13;;;;;;;;;;4986732;28;20127;-66
2022/05/08 01:11:38;;;;;;;8.20;5.03;;;;;;;;;;4973832;28;20039;-66
2022/05/08 01:14:05;;;;;;;5.78;4.10;;;;;;;;;;4985753;28;20505;-66
2022/05/08 01:16:31;;;;;;;8.95;4.68;;;;;;;;;;4981003;28;20061;-67
2022/05/08 01:18:59;;;;;;;7.40;4.53;;;;;;;;;;4985909;28;20034;-66
2022/05/08 01:21:43;;;;;;;11.25;4.35;;;;;;;;;;4990075;28;20154;-66
2022/05/08 01:24:10;;;;;;;7.50;4.68;;;;;;;;;;4978015;28;20019;-66
2022/05/08 01:26:36;;;;;;;10.52;4.78;;;;;;;;;;4981418;28;20204;-66
2022/05/08 01:29:03;;;;;;;7.53;4.60;;;;;;;;;;4985207;28;20030;-66
2022/05/08 01:31:31;;;;;;;9.00;4.65;;;;;;;;;;4974743;28;20114;-66
2022/05/08 01:33:57;;;;;;;7.32;4.75;;;;;;;;;;4986950;28;20516;-66
2022/05/08 01:36:23;;;;;;;11.02;5.90;;;;;;;;;;4979220;28;20109;-66
2022/05/08 01:38:50;;;;;;;8.93;5.00;;;;;;;;;;4979593;28;20062;-66
2022/05/08 01:41:16;;;;;;;8.63;4.80;;;;;;;;;;4986353;28;20105;-66
2022/05/08 01:43:42;;;;;;;8.05;5.28;;;;;;;;;;4974416;28;20122;-66
2022/05/08 01:46:10;;;;;;;10.43;4.78;;;;;;;;;;4985184;28;20069;-66
2022/05/08 01:48:37;;;;;;;9.43;4.72;;;;;;;;;;4980575;28;20030;-66
2022/05/08 01:51:03;;;;;;;11.10;5.28;;;;;;;;;;4977922;28;20491;-66
2022/05/08 01:53:34;;;;;;;8.25;4.68;;;;;;;;;;4987174;28;20461;-66
2022/05/08 01:56:02;;;;;;;10.52;4.80;;;;;;;;;;4975748;28;20484;-66
2022/05/08 01:58:29;;;;;;;10.75;4.65;;;;;;;;;;4982618;28;20105;-66
2022/05/08 02:00:56;;;;;;;7.57;5.05;;;;;;;;;;4983160;28;20121;-66
2022/05/08 02:03:23;;;;;;;8.25;5.32;;;;;;;;;;4975483;28;20054;-66
2022/05/08 02:05:50;;;;;;;7.43;4.60;;;;;;;;;;4986714;28;20454;-66
2022/05/08 02:08:16;;;;;;;9.27;4.53;;;;;;;;;;4977458;28;20403;-66
2022/05/08 02:10:44;;;;;;;10.82;4.60;;;;;;;;;;4980322;28;20047;-66
2022/05/08 02:13:10;;;;;;;8.18;5.00;;;;;;;;;;4984802;28;20432;-67
2022/05/08 02:15:37;;;;;;;5.95;4.05;;;;;;;;;;4974151;28;20506;-66
2022/05/08 02:18:06;;;;;;;9.10;4.60;;;;;;;;;;4985754;28;20049;-66
2022/05/08 02:20:32;;;;;;;10.05;4.97;;;;;;;;;;4978815;28;20144;-66
2022/05/08 02:22:59;;;;;;;10.00;4.75;;;;;;;;;;4978289;28;20019;-67
2022/05/08 02:25:25;;;;;;;13.23;5.22;;;;;;;;;;4986344;28;20034;-67
2022/05/08 02:27:52;;;;;;;9.13;5.05;;;;;;;;;;4973867;28;20480;-66
2022/05/08 02:30:22;;;;;;;9.02;5.13;;;;;;;;;;4984301;28;20038;-66
2022/05/08 02:32:49;;;;;;;8.48;5.28;;;;;;;;;;4980871;28;20030;-66
2022/05/08 02:35:17;;;;;;;9.13;4.10;;;;;;;;;;4976132;28;20096;-67
2022/05/08 02:37:43;;;;;;;8.35;4.72;;;;;;;;;;4986447;28;20042;-67
2022/05/08 02:40:10;;;;;;;7.53;4.32;;;;;;;;;;4975412;28;20022;-66
2022/05/08 02:42:36;;;;;;;6.47;4.15;;;;;;;;;;4981445;28;20068;-67
2022/05/08 02:45:03;;;;;;;7.07;4.18;;;;;;;;;;4982630;28;20030;-66
2022/05/08 02:47:30;;;;;;;7.07;5.13;;;;;;;;;;4974587;28;20084;-66
2022/05/08 02:49:56;;;;;;;7.22;4.28;;;;;;;;;;4986194;28;20033;-66
2022/05/08 02:52:22;;;;;;;10.15;4.30;;;;;;;;;;4977022;28;20430;-66
2022/05/08 02:54:48;;;;;;;9.75;5.05;;;;;;;;;;4979732;28;20030;-66
2022/05/08 03:00:06;;;;;;;8.30;4.75;;;;;;;;;;4986700;28;20122;-66
2022/05/08 03:02:35;;;;;;;9.18;4.75;;;;;;;;;;4977971;28;20035;-67
2022/05/08 03:05:02;;;;;;;9.50;4.65;;;;;;;;;;4978390;28;20088;-66
2022/05/08 03:07:29;;;;;;;8.57;4.32;;;;;;;;;;4985267;28;20484;-67
2022/05/08 03:09:56;;;;;;;8.30;4.82;;;;;;;;;;4973143;28;20736;-67
2022/05/08 03:12:22;;;;;;;9.73;5.70;;;;;;;;;;4984007;28;20030;-67
2022/05/08 03:14:49;;;;;;;9.00;5.50;;;;;;;;;;4979487;28;20042;-67
2022/05/08 03:17:15;;;;;;;8.98;4.75;;;;;;;;;;4976379;28;20072;-66
2022/05/08 03:19:41;;;;;;;6.57;4.30;;;;;;;;;;4985148;28;20042;-66
2022/05/08 03:22:08;;;;;;;9.50;4.35;;;;;;;;;;4985668;28;20097;-66
2022/05/08 03:24:34;;;;;;;7.32;4.60;;;;;;;;;;4977553;28;20114;-67
2022/05/08 03:27:00;;;;;;;8.38;5.00;;;;;;;;;;4978682;28;20019;-67
2022/05/08 03:29:26;;;;;;;9.90;4.45;;;;;;;;;;4984151;28;20045;-67
2022/05/08 03:31:53;;;;;;;8.93;4.93;;;;;;;;;;4972756;28;20027;-67
2022/05/08 03:34:21;;;;;;;9.57;5.47;;;;;;;;;;4986000;28;20031;-67
2022/05/08 03:36:47;;;;;;;12.48;5.15;;;;;;;;;;4982180;28;20034;-67
2022/05/08 03:39:13;;;;;;;7.65;4.70;;;;;;;;;;4980636;28;20467;-66
2022/05/08 03:41:39;;;;;;;9.98;4.78;;;;;;;;;;4989036;28;20024;-66
2022/05/08 03:44:06;;;;;;;7.60;4.95;;;;;;;;;;4976740;28;20042;-66
2022/05/08 03:46:32;;;;;;;6.47;3.70;;;;;;;;;;4985923;28;20475;-67
2022/05/08 03:48:58;;;;;;;11.07;3.80;;;;;;;;;;4983308;28;20041;-67
2022/05/08 03:51:25;;;;;;;8.07;4.35;;;;;;;;;;4979154;28;20553;-67
2022/05/08 03:53:51;;;;;;;8.13;4.45;;;;;;;;;;4988835;28;20022;-67
2022/05/08 03:56:17;;;;;;;9.07;4.65;;;;;;;;;;4977968;28;20395;-66
2022/05/08 03:58:43;;;;;;;7.38;4.50;;;;;;;;;;4982693;28;20117;-67
2022/05/08 04:01:09;;;;;;;7.20;4.55;;;;;;;;;;4991915;28;20430;-67
2022/05/08 04:03:36;;;;;;;10.48;5.38;;;;;;;;;;4977794;28;20485;-67
2022/05/08 04:06:03;;;;;;;9.95;4.72;;;;;;;;;;4988660;28;20488;-67
2022/05/08 04:08:30;;;;;;;9.43;4.38;;;;;;;;;;4978921;28;20110;-66
2022/05/08 04:10:56;;;;;;;7.45;3.97;;;;;;;;;;4996728;28;20045;-66
2022/05/08 04:13:22;;;;;;;8.80;4.20;;;;;;;;;;5005016;28;20036;-66
2022/05/08 04:18:33;;;;;;;6.85;4.30;;;;;;;;;;4986370;28;20039;-66
2022/05/08 04:20:59;;;;;;;7.25;4.85;;;;;;;;;;4982266;28;20484;-66
2022/05/08 04:26:10;;;;;;;8.57;5.00;;;;;;;;;;5048844;28;20079;-67
2022/05/08 04:28:36;;;;;;;9.02;4.47;;;;;;;;;;4979247;28;20365;-67
2022/05/08 04:31:02;;;;;;;8.38;4.50;;;;;;;;;;4981736;28;20035;-67
2022/05/08 04:33:28;;;;;;;10.00;4.93;;;;;;;;;;4981954;28;20488;-66
2022/05/08 04:35:54;;;;;;;7.07;4.30;;;;;;;;;;4975634;28;20110;-66
2022/05/08 04:38:20;;;;;;;8.80;4.68;;;;;;;;;;4982861;28;20377;-66
2022/05/08 04:40:46;;;;;;;7.78;4.68;;;;;;;;;;4977873;28;20057;-66
2022/05/08 04:43:12;;;;;;;12.95;5.90;;;;;;;;;;4973400;28;20050;-66
2022/05/08 04:45:38;;;;;;;19.05;6.72;;;;;;;;;;4989250;28;20456;-66
2022/05/08 04:48:05;;;;;;;15.85;7.45;;;;;;;;;;4977396;28;20022;-66
2022/05/08 04:50:31;;;;;;;18.23;7.10;;;;;;;;;;4994603;28;20027;-66
2022/05/08 04:52:57;;;;;;;16.95;7.90;;;;;;;;;;4984720;28;20065;-66
2022/05/08 04:55:23;;;;;;;32.90;8.57;;;;;;;;;;4975276;28;20038;-66
2022/05/08 04:57:49;;;;;;;25.40;9.07;;;;;;;;;;4982125;28;20437;-66
2022/05/08 05:00:16;;;;;;;33.35;9.95;;;;;;;;;;4980451;28;20039;-66
2022/05/08 05:02:44;;;;;;;18.70;10.10;;;;;;;;;;4976027;28;20084;-66
2022/05/08 05:05:11;;;;;;;32.80;9.70;;;;;;;;;;4979785;28;20030;-66
2022/05/08 05:07:38;;;;;;;33.35;9.63;;;;;;;;;;4985698;28;20030;-65
2022/05/08 05:10:05;;;;;;;44.28;9.98;;;;;;;;;;4975736;28;20397;-65
2022/05/08 05:12:31;;;;;;;28.48;8.65;;;;;;;;;;4975656;28;20727;-66
2022/05/08 05:14:59;;;;;;;21.98;8.32;;;;;;;;;;4977874;28;20058;-66
2022/05/08 05:17:25;;;;;;;20.80;8.45;;;;;;;;;;4979269;28;20026;-66
2022/05/08 05:19:52;;;;;;;23.08;9.10;;;;;;;;;;4973773;28;20030;-66
2022/05/08 05:22:21;;;;;;;19.50;8.10;;;;;;;;;;4977365;28;20035;-66
2022/05/08 05:24:47;;;;;;;21.35;9.82;;;;;;;;;;4974589;28;20380;-66
2022/05/08 05:27:13;;;;;;;27.23;9.52;;;;;;;;;;4976992;28;20443;-66
2022/05/08 05:29:39;;;;;;;21.65;10.50;;;;;;;;;;4978256;28;20385;-66
2022/05/08 05:32:05;;;;;;;21.70;9.73;;;;;;;;;;4977727;28;20096;-66
2022/05/08 05:34:32;;;;;;;20.63;9.45;;;;;;;;;;4977218;28;20031;-66
2022/05/08 05:36:58;;;;;;;19.92;9.18;;;;;;;;;;4977420;28;20109;-66
2022/05/08 05:39:24;;;;;;;20.20;9.32;;;;;;;;;;4973512;28;20043;-66
2022/05/08 05:41:50;;;;;;;19.35;8.55;;;;;;;;;;4976388;28;20448;-66
2022/05/08 05:44:16;;;;;;;20.95;9.07;;;;;;;;;;4972024;28;20050;-66
2022/05/08 05:49:27;;;;;;;17.67;9.20;;;;;;;;;;4973120;28;20035;-66
2022/05/08 05:51:56;;;;;;;23.02;9.75;;;;;;;;;;4978106;28;20024;-66
2022/05/08 05:54:22;;;;;;;21.50;9.70;;;;;;;;;;4978912;28;20037;-66
2022/05/08 05:56:51;;;;;;;19.63;9.38;;;;;;;;;;4973628;28;20026;-66
2022/05/08 05:59:17;;;;;;;21.20;9.70;;;;;;;;;;4972152;28;20057;-66
2022/05/08 06:01:44;;;;;;;23.35;10.75;;;;;;;;;;4970578;28;20489;-66
2022/05/08 06:04:10;;;;;;;17.70;9.15;;;;;;;;;;4973867;28;20015;-66
2022/05/08 06:06:36;;;;;;;17.52;9.02;;;;;;;;;;4971547;28;20023;-66
2022/05/08 06:09:03;;;;;;;17.85;8.80;;;;;;;;;;4974521;28;20046;-66
2022/05/08 06:11:29;;;;;;;18.17;8.43;;;;;;;;;;4976791;28;20019;-66
2022/05/08 06:13:55;;;;;;;15.48;7.60;;;;;;;;;;4977570;28;20455;-66
2022/05/08 06:16:21;;;;;;;13.30;7.40;;;;;;;;;;4976017;28;20018;-66
2022/05/08 06:18:47;;;;;;;14.68;7.55;;;;;;;;;;4983445;28;20030;-66
2022/05/08 06:21:13;;;;;;;17.52;7.70;;;;;;;;;;4980403;28;20118;-66
2022/05/08 06:23:39;;;;;;;13.40;7.07;;;;;;;;;;4972757;28;20027;-65
2022/05/08 06:26:08;;;;;;;12.45;6.88;;;;;;;;;;4975931;28;20463;-65
2022/05/08 06:28:34;;;;;;;16.05;8.20;;;;;;;;;;4974380;28;20397;-66
2022/05/08 06:31:01;;;;;;;16.00;8.02;;;;;;;;;;4972779;28;20019;-66
2022/05/08 06:33:27;;;;;;;15.38;8.00;;;;;;;;;;4970412;28;20027;-65
2022/05/08 06:35:55;;;;;;;16.60;9.23;;;;;;;;;;4971981;28;20030;-66
2022/05/08 06:38:22;;;;;;;18.67;9.15;;;;;;;;;;4975204;28;20038;-66
2022/05/08 06:40:48;;;;;;;17.77;9.45;;;;;;;;;;4974052;28;20180;-66
2022/05/08 06:43:14;;;;;;;18.17;9.45;;;;;;;;;;4974167;28;20019;-65
2022/05/08 06:45:40;;;;;;;18.58;9.73;;;;;;;;;;4970464;28;20027;-66
2022/05/08 06:48:06;;;;;;;21.55;11.55;;;;;;;;;;4970549;28;20027;-66
2022/05/08 06:50:33;;;;;;;21.38;11.20;;;;;;;;;;4975478;28;20416;-66
2022/05/08 06:52:59;;;;;;;21.55;11.45;;;;;;;;;;4974584;28;20455;-66
2022/05/08 06:55:25;;;;;;;26.13;10.60;;;;;;;;;;4973050;28;20027;-66
2022/05/08 06:57:52;;;;;;;28.08;12.93;;;;;;;;;;4974347;28;20084;-66
2022/05/08 07:03:06;;;;;;;32.88;13.98;;;;;;;;;;4978028;28;20136;-66
2022/05/08 07:05:33;;;;;;;28.67;12.93;;;;;;;;;;4983080;28;20042;-66
2022/05/08 07:07:59;;;;;;;24.65;12.23;;;;;;;;;;4976925;28;20614;-66
2022/05/08 07:10:26;;;;;;;26.13;13.38;;;;;;;;;;4986045;28;20077;-66
2022/05/08 07:12:52;;;;;;;26.17;14.13;;;;;;;;;;4980186;28;20039;-66
2022/05/08 07:15:18;;;;;;;35.85;16.65;;;;;;;;;;4972939;28;20108;-66
2022/05/08 07:17:44;;;;;;;31.88;16.85;;;;;;;;;;4973910;28;20423;-66
2022/05/08 07:20:10;;;;;;;36.00;17.65;;;;;;;;;;4970458;28;20057;-66
2022/05/08 07:22:37;;;;;;;47.13;20.80;;;;;;;;;;4971734;28;20468;-66
2022/05/08 07:25:03;;;;;;;46.33;21.05;;;;;;;;;;4972064;28;20055;-66
2022/05/08 07:27:31;;;;;;;55.22;23.63;;;;;;;;;;4972095;28;20031;-66
2022/05/08 07:29:57;;;;;;;51.17;22.23;;;;;;;;;;4972536;28;20027;-66
2022/05/08 07:32:24;;;;;;;54.10;24.33;;;;;;;;;;4979210;28;20035;-66
2022/05/08 07:37:35;;;;;;;55.05;23.65;;;;;;;;;;4973733;28;20113;-66
2022/05/08 07:40:01;;;;;;;55.72;24.38;;;;;;;;;;4974089;28;20046;-66
2022/05/08 07:42:27;;;;;;;53.72;23.13;;;;;;;;;;4974892;28;20369;-66
2022/05/08 07:44:53;;;;;;;56.78;25.25;;;;;;;;;;4973076;28;21170;-66
2022/05/08 07:47:22;;;;;;;62.33;26.10;;;;;;;;;;4975556;28;20088;-66
2022/05/08 07:49:48;;;;;;;60.65;25.23;;;;;;;;;;4978495;28;20109;-66
2022/05/08 07:52:14;;;;;;;52.55;24.30;;;;;;;;;;4973536;28;20445;-64
2022/05/08 07:54:40;;;;;;;50.53;25.70;;;;;;;;;;4976535;28;20042;-66
2022/05/08 07:57:06;;;;;;;55.47;25.67;;;;;;;;;;4973777;28;20054;-66
2022/05/08 07:59:32;;;;;;;55.53;24.48;;;;;;;;;;4969702;28;20113;-65
2022/05/08 08:01:58;;;;;;;59.05;26.08;;;;;;;;;;4980659;28;20110;-65
2022/05/08 08:04:25;;;;;;;55.13;24.23;;;;;;;;;;4974882;28;20028;-66
2022/05/08 08:06:51;;;;;;;58.08;25.67;;;;;;;;;;4980640;28;20053;-66
2022/05/08 08:09:17;;;;;;;54.33;23.98;;;;;;;;;;4989536;28;20054;-66
2022/05/08 08:11:44;;;;;;;42.60;21.27;;;;;;;;;;4989417;28;20056;-66
2022/05/08 08:14:10;;;;;;;49.17;22.30;;;;;;;;;;4977550;28;20373;-66
2022/05/08 08:16:36;;;;;;;39.78;19.85;;;;;;;;;;4972849;28;20034;-66
2022/05/08 08:19:02;;;;;;;42.60;19.58;;;;;;;;;;4975348;28;20023;-66
2022/05/08 08:21:28;;;;;;;36.97;18.85;;;;;;;;;;4972597;28;20488;-66
2022/05/08 08:23:54;;;;;;;37.45;17.30;;;;;;;;;;4988210;28;20018;-66
2022/05/08 08:26:21;;;;;;;33.53;17.55;;;;;;;;;;4992178;28;20066;-66
2022/05/08 08:28:47;;;;;;;29.88;15.15;;;;;;;;;;4973294;28;20022;-66
2022/05/08 08:31:13;;;;;;;34.67;16.23;;;;;;;;;;4973168;28;20039;-66
2022/05/08 08:33:40;;;;;;;34.20;16.23;;;;;;;;;;4984252;28;20392;-66
2022/05/08 08:36:10;;;;;;;28.45;14.10;;;;;;;;;;4972592;28;20038;-66
2022/05/08 08:38:36;;;;;;;24.10;14.25;;;;;;;;;;4973139;28;20033;-65
2022/05/08 08:41:04;;;;;;;24.75;12.98;;;;;;;;;;4972815;28;20043;-66
2022/05/08 08:49:07;;;;;;;24.15;12.30;;;;;;;;;;4984508;28;20431;-69
2022/05/08 08:51:33;;;;;;;25.73;12.90;;;;;;;;;;4982659;28;20038;-69
2022/05/08 08:54:00;;;;;;;24.08;11.90;;;;;;;;;;4972978;28;20034;-69
2022/05/08 08:56:27;;;;;;;23.50;13.23;;;;;;;;;;4982974;28;20019;-69
2022/05/08 08:58:53;;;;;;;27.33;12.82;;;;;;;;;;4977789;28;20049;-69
2022/05/08 09:01:19;;;;;;;23.30;12.73;;;;;;;;;;4987443;28;20160;-69
2022/05/08 09:03:45;;;;;;;23.33;13.43;;;;;;;;;;4978206;28;20022;-69
2022/05/08 09:06:11;;;;;;;24.00;13.38;;;;;;;;;;4980529;28;20635;-69
2022/05/08 09:08:38;;;;;;;25.40;14.13;;;;;;;;;;4979986;28;20029;-69
2022/05/08 09:11:04;;;;;;;25.10;13.27;;;;;;;;;;4978785;28;20035;-69
2022/05/08 09:13:31;;;;;;;28.60;13.70;;;;;;;;;;4979370;28;20488;-69
2022/05/08 09:16:07;;;;;;;23.35;12.93;;;;;;;;;;4987528;28;20034;-69
2022/05/08 09:18:44;;;;;;;24.08;12.55;;;;;;;;;;4974244;28;20039;-69
2022/05/08 09:24:06;;;;;;;20.17;11.95;;;;;;;;;;4981614;28;20510;-69
2022/05/08 09:26:33;;;;;;;24.40;12.43;;;;;;;;;;4978342;28;20011;-70
2022/05/08 09:28:59;;;;;;;24.05;12.48;;;;;;;;;;4972590;28;20034;-70
2022/05/08 09:31:25;;;;;;;23.67;13.73;;;;;;;;;;4970805;28;20169;-70
2022/05/08 09:33:51;;;;;;;29.20;13.13;;;;;;;;;;4982496;28;20107;-70
2022/05/08 09:36:19;;;;;;;32.72;14.43;;;;;;;;;;4978784;28;20055;-67
2022/05/08 09:38:48;;;;;;;25.63;13.93;;;;;;;;;;4983102;28;20480;-70
2022/05/08 09:41:22;;;;;;;23.00;13.55;;;;;;;;;;4986897;28;20046;-70
2022/05/08 09:43:49;;;;;;;24.63;14.25;;;;;;;;;;4974294;28;20423;-70
2022/05/08 09:46:15;;;;;;;21.50;13.55;;;;;;;;;;4977418;28;20516;-70
2022/05/08 09:48:42;;;;;;;26.50;13.63;;;;;;;;;;4975940;28;20027;-70
2022/05/08 09:51:12;;;;;;;22.48;13.30;;;;;;;;;;4971870;28;20031;-71
2022/05/08 09:53:39;;;;;;;23.15;12.00;;;;;;;;;;4979137;28;20042;-70
2022/05/08 09:56:07;;;;;;;26.58;12.88;;;;;;;;;;4986871;28;20278;-71
2022/05/08 09:58:33;;;;;;;26.75;14.15;;;;;;;;;;4973270;28;20031;-70
2022/05/08 10:01:00;;;;;;;24.25;14.02;;;;;;;;;;4981414;28;20109;-70
2022/05/08 10:03:27;;;;;;;22.08;12.70;;;;;;;;;;4977848;28;20113;-70
2022/05/08 10:05:55;;;;;;;25.08;12.98;;;;;;;;;;4970196;28;20025;-70
2022/05/08 10:08:25;;;;;;;22.27;11.52;;;;;;;;;;4999672;28;20035;-70
2022/05/08 10:13:57;;;;;;;19.60;11.57;;;;;;;;;;4977238;28;20447;-70
2022/05/08 10:16:48;;;;;;;19.10;11.15;;;;;;;;;;4982828;28;20474;-70
2022/05/08 10:19:23;;;;;;;18.90;9.73;;;;;;;;;;4976398;28;20064;-71
2022/05/08 10:22:09;;;;;;;19.08;11.88;;;;;;;;;;4983006;28;20027;-71
2022/05/08 10:24:36;;;;;;;18.70;9.85;;;;;;;;;;4978630;28;20038;-70
2022/05/08 10:27:14;;;;;;;21.55;11.95;;;;;;;;;;4972701;28;20023;-71
2022/05/08 10:29:41;;;;;;;20.63;11.50;;;;;;;;;;4986651;28;20023;-70
2022/05/08 10:32:10;;;;;;;19.08;10.65;;;;;;;;;;4982049;28;20045;-70
2022/05/08 10:34:40;;;;;;;21.45;11.15;;;;;;;;;;4976720;28;20030;-70
2022/05/08 10:37:12;;;;;;;14.35;10.00;;;;;;;;;;4985238;28;20093;-70
2022/05/08 10:39:45;;;;;;;21.02;9.95;;;;;;;;;;4989086;28;20125;-71
2022/05/08 10:42:23;;;;;;;16.58;10.82;;;;;;;;;;4984475;28;20054;-71
2022/05/08 10:44:50;;;;;;;18.30;10.50;;;;;;;;;;4975246;28;20122;-70
2022/05/08 10:47:34;;;;;;;19.00;11.32;;;;;;;;;;4974835;28;20049;-71
2022/05/08 10:50:06;;;;;;;16.50;9.00;;;;;;;;;;4975003;28;20565;-71
2022/05/08 10:52:34;;;;;;;16.08;8.98;;;;;;;;;;4984658;28;20508;-71
2022/05/08 10:55:04;;;;;;;16.13;8.23;;;;;;;;;;4975720;28;20027;-71
2022/05/08 10:57:30;;;;;;;15.13;8.38;;;;;;;;;;4980213;28;20508;-71
2022/05/08 10:59:56;;;;;;;14.07;7.50;;;;;;;;;;4982973;28;20034;-71
2022/05/08 11:02:43;;;;;;;14.57;8.23;;;;;;;;;;4976462;28;20026;-71
2022/05/08 11:05:13;;;;;;;14.32;8.05;;;;;;;;;;4968959;28;20027;-71
2022/05/08 11:07:40;;;;;;;17.98;9.30;;;;;;;;;;4982503;28;20030;-71
2022/05/08 11:10:27;;;;;;;19.00;8.45;;;;;;;;;;4973108;28;20211;-71
2022/05/08 11:12:59;;;;;;;16.08;7.50;;;;;;;;;;4974184;28;20037;-71
2022/05/08 11:15:26;;;;;;;18.30;8.13;;;;;;;;;;4969706;28;20061;-71
2022/05/08 11:18:12;;;;;;;13.30;7.72;;;;;;;;;;4983714;28;20026;-68
2022/05/08 11:20:44;;;;;;;14.02;7.43;;;;;;;;;;4973345;28;20088;-71
2022/05/08 11:23:13;;;;;;;17.90;7.95;;;;;;;;;;4974281;28;20027;-71
2022/05/08 11:25:40;;;;;;;14.57;7.80;;;;;;;;;;4985398;28;20034;-71
2022/05/08 11:28:13;;;;;;;16.85;7.82;;;;;;;;;;4975188;28;20101;-71
2022/05/08 11:30:40;;;;;;;11.15;7.57;;;;;;;;;;4969038;28;20027;-71
2022/05/08 11:36:04;;;;;;;17.05;7.97;;;;;;;;;;4971288;28;20118;-71
2022/05/08 11:38:42;;;;;;;10.65;6.30;;;;;;;;;;4979821;28;20035;-73
2022/05/08 11:41:18;;;;;;;19.65;7.90;;;;;;;;;;4976687;28;20047;-73
2022/05/08 11:43:45;;;;;;;15.30;6.75;;;;;;;;;;4979348;28;20041;-73
2022/05/08 11:46:15;;;;;;;12.43;7.18;;;;;;;;;;4985735;28;20092;-73
2022/05/08 11:48:42;;;;;;;14.15;7.03;;;;;;;;;;4979121;28;20033;-72
2022/05/08 11:51:09;;;;;;;12.98;6.68;;;;;;;;;;4980665;28;20034;-73
2022/05/08 11:53:39;;;;;;;13.85;6.72;;;;;;;;;;4980467;28;20099;-72
2022/05/08 11:56:21;;;;;;;12.10;6.97;;;;;;;;;;4984253;28;20026;-72
2022/05/08 11:58:48;;;;;;;13.90;6.88;;;;;;;;;;4984686;28;20518;-73
2022/05/08 12:01:23;;;;;;;16.90;6.75;;;;;;;;;;4983884;28;20026;-72
2022/05/08 12:03:49;;;;;;;11.63;5.60;;;;;;;;;;4981292;28;20585;-72
2022/05/08 12:06:15;;;;;;;13.27;5.55;;;;;;;;;;4978963;28;20026;-73
2022/05/08 12:08:42;;;;;;;10.10;5.38;;;;;;;;;;4981700;28;20110;-73
2022/05/08 12:11:08;;;;;;;10.90;4.68;;;;;;;;;;4985076;28;20065;-72
2022/05/08 12:13:54;;;;;;;11.23;5.47;;;;;;;;;;4985365;28;20479;-73
2022/05/08 12:16:21;;;;;;;9.32;5.07;;;;;;;;;;4979200;28;20042;-72
2022/05/08 12:19:05;;;;;;;11.27;5.00;;;;;;;;;;4980958;28;20734;-72
2022/05/08 12:21:32;;;;;;;16.05;5.55;;;;;;;;;;4982407;28;20042;-73
2022/05/08 12:23:59;;;;;;;10.52;5.45;;;;;;;;;;4981390;28;20459;-72
2022/05/08 12:26:25;;;;;;;13.63;5.88;;;;;;;;;;4982414;28;20519;-73
2022/05/08 12:28:51;;;;;;;10.10;5.60;;;;;;;;;;4980892;28;20046;-72
2022/05/08 12:31:17;;;;;;;8.43;4.78;;;;;;;;;;4982850;28;20380;-73
2022/05/08 12:33:44;;;;;;;10.63;6.32;;;;;;;;;;4988955;28;20020;-73
2022/05/08 12:36:10;;;;;;;10.93;6.13;;;;;;;;;;4980186;28;20046;-73
2022/05/08 12:38:36;;;;;;;7.70;4.95;;;;;;;;;;4982153;28;20019;-73
2022/05/08 12:41:02;;;;;;;14.38;6.60;;;;;;;;;;4981356;28;20070;-71
2022/05/08 12:43:28;;;;;;;16.02;7.07;;;;;;;;;;4975000;28;20046;-71
2022/05/08 12:45:58;;;;;;;11.90;6.43;;;;;;;;;;4980165;28;20023;-71
2022/05/08 12:48:25;;;;;;;17.48;6.43;;;;;;;;;;4983790;28;20481;-71
2022/05/08 12:50:51;;;;;;;9.95;6.18;;;;;;;;;;4982359;28;20105;-71
2022/05/08 12:53:17;;;;;;;16.48;6.55;;;;;;;;;;4979509;28;20037;-70
2022/05/08 12:55:43;;;;;;;12.15;6.63;;;;;;;;;;4980791;28;20029;-70
2022/05/08 13:00:54;;;;;;;12.90;7.38;;;;;;;;;;4984071;28;20102;-70
2022/05/08 13:03:21;;;;;;;12.93;7.32;;;;;;;;;;4976556;28;20076;-71
2022/05/08 13:05:49;;;;;;;12.25;7.20;;;;;;;;;;4981200;28;20041;-70
2022/05/08 13:08:21;;;;;;;21.23;7.93;;;;;;;;;;4974209;28;20503;-71
2022/05/08 13:10:47;;;;;;;18.80;8.43;;;;;;;;;;4978399;28;20057;-71
2022/05/08 13:13:13;;;;;;;13.73;8.30;;;;;;;;;;4976548;28;20564;-71
2022/05/08 13:15:40;;;;;;;14.45;7.68;;;;;;;;;;4973876;28;20118;-71
2022/05/08 13:18:06;;;;;;;13.88;8.05;;;;;;;;;;4975154;28;20114;-70
2022/05/08 13:20:32;;;;;;;17.60;9.15;;;;;;;;;;4976130;28;20039;-70
2022/05/08 13:22:58;;;;;;;18.65;7.78;;;;;;;;;;4984001;28;20018;-71
2022/05/08 13:25:24;;;;;;;15.43;8.73;;;;;;;;;;4988625;28;20075;-70
2022/05/08 13:27:50;;;;;;;11.30;7.07;;;;;;;;;;4987818;28;20545;-71
2022/05/08 13:30:16;;;;;;;16.38;7.30;;;;;;;;;;4980603;28;20042;-70
2022/05/08 13:32:43;;;;;;;12.15;7.05;;;;;;;;;;4970954;28;20385;-70
2022/05/08 13:35:09;;;;;;;14.25;7.60;;;;;;;;;;4989556;28;20026;-70
2022/05/08 13:37:35;;;;;;;20.30;7.65;;;;;;;;;;4978129;28;20485;-70
2022/05/08 13:40:03;;;;;;;13.20;8.40;;;;;;;;;;4973171;28;20515;-70
2022/05/08 13:42:31;;;;;;;16.73;8.60;;;;;;;;;;4971281;28;20073;-70
2022/05/08 13:44:57;;;;;;;14.75;9.25;;;;;;;;;;4971030;28;20045;-70
2022/05/08 13:47:23;;;;;;;18.05;7.95;;;;;;;;;;4971969;28;20404;-70
2022/05/08 13:49:50;;;;;;;13.75;8.45;;;;;;;;;;4980146;28;20041;-70
2022/05/08 13:52:16;;;;;;;19.02;9.70;;;;;;;;;;4986008;28;20126;-70
2022/05/08 13:54:43;;;;;;;18.63;8.57;;;;;;;;;;4977721;28;20030;-70
2022/05/08 13:57:09;;;;;;;14.48;9.25;;;;;;;;;;4984760;28;20507;-70
2022/05/08 13:59:35;;;;;;;17.73;10.38;;;;;;;;;;4987041;28;20117;-71
2022/05/08 14:02:02;;;;;;;19.73;10.68;;;;;;;;;;5004651;28;20028;-70
2022/05/08 14:04:28;;;;;;;26.83;10.05;;;;;;;;;;4973775;28;20420;-71
2022/05/08 14:06:54;;;;;;;16.20;10.10;;;;;;;;;;4985961;28;20037;-70
2022/05/08 14:09:20;;;;;;;19.00;10.10;;;;;;;;;;4977440;28;20047;-70
2022/05/08 14:11:52;;;;;;;16.83;9.57;;;;;;;;;;4982149;28;20126;-70
2022/05/08 14:14:18;;;;;;;18.30;10.93;;;;;;;;;;5000303;28;20469;-70
2022/05/08 14:16:44;;;;;;;17.65;10.60;;;;;;;;;;4990793;28;20030;-70
2022/05/08 14:19:11;;;;;;;18.92;11.07;;;;;;;;;;4981254;28;20027;-70
2022/05/08 14:21:37;;;;;;;20.67;11.45;;;;;;;;;;4981017;28;20106;-70
2022/05/08 14:24:03;;;;;;;15.18;9.38;;;;;;;;;;4981975;28;20487;-70
2022/05/08 14:26:29;;;;;;;22.08;11.18;;;;;;;;;;4978093;28;20072;-70
2022/05/08 14:28:55;;;;;;;17.52;11.05;;;;;;;;;;4999808;28;20121;-70
2022/05/08 14:36:51;;;;;;;17.60;10.93;;;;;;;;;;4987647;28;20037;-70
2022/05/08 14:39:17;;;;;;;18.80;10.25;;;;;;;;;;4974281;28;20042;-70
2022/05/08 14:41:45;;;;;;;17.23;10.98;;;;;;;;;;4974055;28;20484;-70
2022/05/08 14:44:11;;;;;;;20.80;10.00;;;;;;;;;;4972780;28;20019;-70
2022/05/08 14:46:37;;;;;;;16.30;9.23;;;;;;;;;;4971640;28;21431;-70
2022/05/08 14:49:03;;;;;;;19.75;10.35;;;;;;;;;;4978992;28;20026;-70
2022/05/08 14:51:29;;;;;;;20.58;11.38;;;;;;;;;;4977736;28;20043;-70
2022/05/08 14:53:56;;;;;;;26.05;13.50;;;;;;;;;;4972460;28;20068;-70
2022/05/08 14:56:23;;;;;;;23.95;10.63;;;;;;;;;;4981361;28;20034;-70
2022/05/08 14:58:49;;;;;;;23.08;11.23;;;;;;;;;;4999636;28;20061;-70
2022/05/08 15:01:15;;;;;;;18.77;10.60;;;;;;;;;;4980610;28;20117;-70
2022/05/08 15:03:42;;;;;;;21.10;11.23;;;;;;;;;;4977692;28;20033;-70
2022/05/08 15:06:08;;;;;;;20.08;10.90;;;;;;;;;;4985113;28;20407;-74
2022/05/08 15:08:34;;;;;;;19.70;10.27;;;;;;;;;;4981002;28;20054;-74